createdAt,value
2023-05-16T00:01:08.222Z,76.17
2023-05-16T00:03:37.045Z,75.87
2023-05-16T00:06:05.249Z,76.17
2023-05-16T00:08:33.198Z,76.04
2023-05-16T00:11:01.510Z,75.54
2023-05-16T00:13:30.556Z,75.27
2023-05-16T00:16:02.544Z,75.38
2023-05-16T00:18:31.988Z,75.17
2023-05-16T00:21:00.170Z,74.19
2023-05-16T00:23:28.128Z,74.64
2023-05-16T00:25:56.123Z,74.52
2023-05-16T00:28:24.253Z,75.01
2023-05-16T00:30:52.047Z,74.85
2023-05-16T00:33:20.015Z,74.52
2023-05-16T00:35:49.194Z,74.89
2023-05-16T00:38:18.965Z,74.83
2023-05-16T00:40:47.267Z,74.83
2023-05-16T00:43:15.117Z,74.31
2023-05-16T00:45:43.047Z,74.89
2023-05-16T00:48:12.644Z,74.71
2023-05-16T00:50:41.146Z,75.27
2023-05-16T00:53:10.417Z,75.69
2023-05-16T00:55:39.046Z,75.53
2023-05-16T00:58:09.988Z,75.31
2023-05-16T01:00:37.944Z,74.96
2023-05-16T01:03:07.058Z,74.58
2023-05-16T01:05:35.438Z,74.72
2023-05-16T01:08:03.310Z,75.16
2023-05-16T01:10:54.002Z,75.90
2023-05-16T01:13:30.125Z,75.71
2023-05-16T01:16:08.650Z,76.31
2023-05-16T01:18:44.326Z,76.24
2023-05-16T01:21:19.753Z,76.44
2023-05-16T01:23:57.278Z,76.95
2023-05-16T01:26:28.756Z,77.13
2023-05-16T01:28:57.279Z,77.33
2023-05-16T01:31:25.555Z,77.39
2023-05-16T01:33:53.609Z,78.04
2023-05-16T01:36:26.523Z,77.54
2023-05-16T01:39:03.420Z,77.77
2023-05-16T01:41:42.583Z,77.45
2023-05-16T01:44:18.880Z,77.92
2023-05-16T01:46:48.619Z,77.93
2023-05-16T01:49:22.135Z,77.02
2023-05-16T01:51:53.180Z,76.67
2023-05-16T01:54:25.387Z,76.46
2023-05-16T01:56:56.030Z,76.06
2023-05-16T01:59:26.006Z,75.81
2023-05-16T02:01:55.739Z,76.10
2023-05-16T02:04:24.334Z,75.89
2023-05-16T02:06:52.435Z,75.15
2023-05-16T02:09:20.501Z,75.36
2023-05-16T02:11:48.540Z,74.82
2023-05-16T02:14:17.850Z,74.43
2023-05-16T02:16:45.789Z,75.66
2023-05-16T02:19:13.740Z,75.51
2023-05-16T02:21:41.663Z,74.96
2023-05-16T02:24:09.591Z,75.18
2023-05-16T02:26:37.506Z,75.68
2023-05-16T02:29:07.102Z,75.43
2023-05-16T02:31:36.512Z,75.29
2023-05-16T02:34:04.508Z,75.27
2023-05-16T02:36:34.317Z,74.89
2023-05-16T02:39:02.304Z,74.59
2023-05-16T02:41:30.153Z,75.04
2023-05-16T02:43:58.095Z,74.79
2023-05-16T02:46:28.378Z,74.80
2023-05-16T02:48:58.108Z,74.96
2023-05-16T02:51:27.499Z,75.06
2023-05-16T02:53:57.101Z,75.37
2023-05-16T02:56:25.119Z,75.44
2023-05-16T02:58:54.559Z,75.26
2023-05-16T03:01:22.567Z,74.77
2023-05-16T03:03:51.056Z,75.19
2023-05-16T03:06:20.347Z,74.85
2023-05-16T03:08:48.189Z,75.03
2023-05-16T03:11:20.860Z,75.44
2023-05-16T03:13:48.994Z,75.32
2023-05-16T03:16:17.087Z,75.71
2023-05-16T03:18:45.215Z,75.43
2023-05-16T03:21:13.479Z,76.20
2023-05-16T03:23:42.682Z,76.30
2023-05-16T03:26:10.564Z,75.55
2023-05-16T03:28:38.755Z,75.97
2023-05-16T03:31:06.968Z,75.29
2023-05-16T03:33:35.120Z,75.31
2023-05-16T03:36:03.410Z,74.86
2023-05-16T03:38:31.458Z,74.90
2023-05-16T03:41:01.289Z,74.93
2023-05-16T03:43:29.261Z,74.70
2023-05-16T03:45:57.263Z,74.44
2023-05-16T03:48:25.325Z,75.13
2023-05-16T03:50:53.143Z,74.93
2023-05-16T03:53:21.088Z,75.04
2023-05-16T03:55:49.114Z,74.99
2023-05-16T03:58:18.511Z,75.59
2023-05-16T04:00:46.883Z,75.14
2023-05-16T04:03:14.993Z,74.93
2023-05-16T04:05:43.379Z,75.33
2023-05-16T04:08:11.423Z,75.63
2023-05-16T04:10:39.269Z,75.06
2023-05-16T04:13:07.251Z,76.13
2023-05-16T04:15:36.521Z,76.60
2023-05-16T04:18:05.069Z,76.73
2023-05-16T04:20:33.210Z,76.62
2023-05-16T04:23:01.126Z,76.77
2023-05-16T04:25:29.263Z,76.85
2023-05-16T04:27:57.399Z,77.28
2023-05-16T04:30:25.386Z,76.82
2023-05-16T04:32:55.074Z,76.00
2023-05-16T04:35:23.377Z,76.70
2023-05-16T04:37:51.389Z,77.13
2023-05-16T04:40:19.363Z,77.26
2023-05-16T04:42:47.931Z,76.67
2023-05-16T04:45:16.126Z,76.03
2023-05-16T04:47:44.105Z,75.50
2023-05-16T04:50:13.585Z,75.28
2023-05-16T04:52:41.577Z,75.46
2023-05-16T04:55:10.891Z,75.47
2023-05-16T04:57:38.791Z,75.27
2023-05-16T05:00:10.290Z,74.88
2023-05-16T05:02:38.662Z,75.08
2023-05-16T05:05:08.389Z,75.16
2023-05-16T05:07:37.817Z,75.20
2023-05-16T05:10:07.698Z,74.03
2023-05-16T05:12:36.356Z,74.40
2023-05-16T05:15:04.715Z,74.77
2023-05-16T05:17:32.777Z,74.68
2023-05-16T05:20:02.856Z,74.48
2023-05-16T05:22:31.205Z,74.82
2023-05-16T05:25:00.478Z,74.83
2023-05-16T05:27:28.686Z,74.56
2023-05-16T05:29:56.709Z,74.52
2023-05-16T05:32:24.656Z,74.20
2023-05-16T05:34:52.938Z,74.42
2023-05-16T05:37:21.145Z,74.24
2023-05-16T05:39:48.984Z,74.06
2023-05-16T05:42:18.280Z,73.13
2023-05-16T05:44:46.160Z,72.19
2023-05-16T05:47:14.472Z,72.06
2023-05-16T05:49:42.426Z,71.59
2023-05-16T05:52:10.629Z,71.30
2023-05-16T05:54:38.707Z,71.41
2023-05-16T05:57:06.954Z,71.05
2023-05-16T05:59:36.824Z,70.93
2023-05-16T06:02:05.220Z,70.42
2023-05-16T06:04:33.127Z,70.05
2023-05-16T06:07:01.094Z,69.88
2023-05-16T06:09:28.906Z,70.18
2023-05-16T06:11:56.911Z,69.88
2023-05-16T06:14:24.752Z,70.10
2023-05-16T06:16:54.118Z,70.09
2023-05-16T06:19:22.281Z,69.76
2023-05-16T06:21:50.194Z,69.53
2023-05-16T06:24:18.091Z,69.71
2023-05-16T06:26:49.934Z,69.72
2023-05-16T06:29:18.172Z,70.23
2023-05-16T06:31:47.483Z,69.90
2023-05-16T06:34:16.850Z,69.70
2023-05-16T06:36:44.784Z,69.86
2023-05-16T06:39:12.711Z,69.85
2023-05-16T06:41:40.629Z,69.83
2023-05-16T06:44:12.705Z,70.00
2023-05-16T06:46:40.617Z,69.81
2023-05-16T06:49:08.536Z,70.25
2023-05-16T06:51:37.841Z,70.67
2023-05-16T06:54:05.760Z,70.54
2023-05-16T06:56:33.703Z,70.59
2023-05-16T06:59:02.513Z,70.80
2023-05-16T07:01:30.520Z,71.00
2023-05-16T07:03:58.602Z,70.31
2023-05-16T07:06:26.715Z,70.19
2023-05-16T07:08:56.094Z,70.08
2023-05-16T07:11:24.024Z,69.37
2023-05-16T07:13:52.036Z,68.81
2023-05-16T07:16:20.064Z,67.87
2023-05-16T07:18:48.133Z,67.48
2023-05-16T07:21:16.461Z,67.71
2023-05-16T07:23:44.328Z,67.67
2023-05-16T07:26:13.638Z,67.36
2023-05-16T07:28:42.048Z,67.74
2023-05-16T07:31:09.929Z,66.78
2023-05-16T07:33:37.899Z,66.55
2023-05-16T07:36:15.981Z,66.61
2023-05-16T07:38:44.670Z,66.58
2023-05-16T07:41:14.049Z,66.57
2023-05-16T07:43:41.975Z,66.70
2023-05-16T07:46:09.918Z,66.88
2023-05-16T07:48:38.247Z,67.16
2023-05-16T07:51:06.219Z,67.42
2023-05-16T07:53:34.633Z,67.92
2023-05-16T07:56:02.539Z,67.85
2023-05-16T07:58:32.025Z,68.19
2023-05-16T08:01:00.372Z,68.66
2023-05-16T08:03:28.529Z,68.45
2023-05-16T08:05:56.786Z,68.84
2023-05-16T08:08:24.703Z,68.99
2023-05-16T08:10:52.652Z,69.26
2023-05-16T08:13:20.629Z,69.32
2023-05-16T08:15:49.991Z,69.49
2023-05-16T08:18:20.679Z,69.68
2023-05-16T08:20:50.155Z,69.36
2023-05-16T08:23:18.104Z,69.04
2023-05-16T08:25:46.166Z,68.90
2023-05-16T08:28:14.080Z,68.92
2023-05-16T08:30:43.368Z,69.03
2023-05-16T08:33:13.593Z,69.10
2023-05-16T08:35:43.596Z,69.24
2023-05-16T08:38:11.546Z,69.85
2023-05-16T08:40:40.814Z,69.42
2023-05-16T08:43:08.960Z,69.92
2023-05-16T08:45:37.023Z,69.81
2023-05-16T08:48:09.489Z,69.45
2023-05-16T08:50:39.804Z,69.76
2023-05-16T08:53:10.369Z,69.82
2023-05-16T08:55:39.526Z,70.19
2023-05-16T08:58:07.647Z,70.11
2023-05-16T09:00:36.641Z,70.23
2023-05-16T09:03:05.990Z,70.64
2023-05-16T09:05:34.868Z,70.67
2023-05-16T09:08:04.170Z,70.94
2023-05-16T09:10:32.107Z,70.87
2023-05-16T09:12:59.954Z,71.03
2023-05-16T09:15:33.546Z,71.35
2023-05-16T09:18:03.013Z,71.64
2023-05-16T09:20:31.293Z,71.74
2023-05-16T09:23:00.934Z,72.40
2023-05-16T09:25:32.610Z,73.02
2023-05-16T09:28:03.689Z,73.63
2023-05-16T09:30:37.059Z,73.48
2023-05-16T09:33:07.765Z,73.05
2023-05-16T09:35:45.095Z,73.16
2023-05-16T09:38:17.484Z,72.69
2023-05-16T09:40:47.535Z,73.22
2023-05-16T09:43:18.034Z,73.10
2023-05-16T09:45:48.698Z,72.72
2023-05-16T09:48:18.430Z,72.61
2023-05-16T09:50:52.877Z,72.27
2023-05-16T09:53:27.881Z,72.32
2023-05-16T09:56:07.869Z,71.86
2023-05-16T09:58:37.192Z,72.95
2023-05-16T10:01:05.630Z,73.19
2023-05-16T10:03:36.000Z,72.98
2023-05-16T10:06:05.867Z,72.99
2023-05-16T10:08:36.497Z,72.43
2023-05-16T10:11:07.192Z,72.09
2023-05-16T10:13:37.711Z,71.55
2023-05-16T10:16:08.977Z,71.67
2023-05-16T10:18:38.116Z,71.28
2023-05-16T10:21:10.427Z,71.66
2023-05-16T10:23:43.020Z,71.59
2023-05-16T10:26:14.796Z,71.33
2023-05-16T10:28:43.474Z,71.21
2023-05-16T10:31:12.046Z,71.36
2023-05-16T10:33:41.024Z,71.07
2023-05-16T10:36:10.983Z,70.89
2023-05-16T10:38:39.800Z,70.82
2023-05-16T10:41:08.460Z,70.50
2023-05-16T10:43:37.826Z,70.49
2023-05-16T10:46:09.744Z,70.83
2023-05-16T10:48:39.616Z,70.25
2023-05-16T10:51:37.583Z,70.43
2023-05-16T10:54:07.789Z,70.96
2023-05-16T10:56:36.342Z,71.37
2023-05-16T10:59:05.910Z,71.98
2023-05-16T11:01:35.171Z,71.72
2023-05-16T11:04:11.508Z,71.88
2023-05-16T11:06:48.165Z,72.00
2023-05-16T11:09:25.461Z,72.47
2023-05-16T11:12:02.721Z,72.86
2023-05-16T11:14:39.438Z,73.55
2023-05-16T11:17:13.040Z,74.23
2023-05-16T11:19:43.813Z,74.61
2023-05-16T11:22:17.075Z,74.58
2023-05-16T11:24:53.458Z,74.94
2023-05-16T11:27:24.464Z,75.54
2023-05-16T11:29:54.373Z,75.85
2023-05-16T11:32:23.979Z,76.42
2023-05-16T11:34:54.465Z,76.41
2023-05-16T11:37:22.901Z,76.92
2023-05-16T11:39:51.248Z,77.08
2023-05-16T11:42:19.334Z,76.95
2023-05-16T11:44:47.426Z,77.43
2023-05-16T11:47:16.996Z,78.09
2023-05-16T11:49:45.465Z,77.92
2023-05-16T11:52:14.543Z,78.20
2023-05-16T11:54:43.281Z,78.24
2023-05-16T11:57:11.331Z,78.44
2023-05-16T11:59:39.683Z,79.27
2023-05-16T12:02:09.736Z,80.36
2023-05-16T12:04:39.535Z,80.20
2023-05-16T12:07:07.619Z,80.74
2023-05-16T12:09:35.596Z,81.01
2023-05-16T12:12:06.307Z,81.53
2023-05-16T12:14:34.765Z,80.89
2023-05-16T12:17:04.665Z,81.25
2023-05-16T12:19:33.055Z,81.26
2023-05-16T12:22:02.762Z,81.79
2023-05-16T12:24:31.960Z,81.58
2023-05-16T12:27:00.031Z,81.23
2023-05-16T12:29:28.027Z,80.16
2023-05-16T12:31:55.915Z,80.08
2023-05-16T12:34:24.299Z,79.26
2023-05-16T12:36:53.944Z,79.40
2023-05-16T12:39:24.124Z,79.58
2023-05-16T12:41:52.280Z,79.50
2023-05-16T12:44:20.644Z,79.62
2023-05-16T12:46:51.541Z,79.14
2023-05-16T12:49:21.611Z,79.59
2023-05-16T12:51:51.025Z,79.63
2023-05-16T12:54:19.375Z,79.94
2023-05-16T12:56:48.645Z,79.65
2023-05-16T12:59:16.696Z,79.91
2023-05-16T13:01:46.383Z,80.21
2023-05-16T13:04:19.049Z,80.39
2023-05-16T13:06:57.356Z,81.12
2023-05-16T13:09:30.356Z,81.42
2023-05-16T13:12:01.596Z,81.30
2023-05-16T13:14:31.720Z,81.75
2023-05-16T13:16:59.635Z,82.08
2023-05-16T13:19:27.617Z,82.42
2023-05-16T13:21:56.132Z,82.82
2023-05-16T13:24:24.018Z,82.83
2023-05-16T13:26:51.947Z,83.26
2023-05-16T13:29:21.215Z,83.84
2023-05-16T13:31:49.206Z,84.19
2023-05-16T13:34:17.243Z,84.10
2023-05-16T13:39:18.354Z,84.34
2023-05-16T13:41:48.580Z,84.30
2023-05-16T13:44:16.978Z,84.50
2023-05-16T13:46:46.757Z,85.11
2023-05-16T13:49:14.783Z,85.17
2023-05-16T13:51:43.758Z,85.02
2023-05-16T13:54:11.772Z,85.13
2023-05-16T13:56:39.678Z,85.20
2023-05-16T13:59:08.229Z,85.38
2023-05-16T14:01:37.532Z,85.24
2023-05-16T14:04:07.041Z,85.69
2023-05-16T14:06:34.999Z,85.46
2023-05-16T14:09:03.341Z,85.69
2023-05-16T14:11:31.330Z,85.90
2023-05-16T14:13:59.573Z,86.26
2023-05-16T14:16:27.732Z,86.36
2023-05-16T14:18:55.939Z,86.22
2023-05-16T14:21:25.258Z,86.53
2023-05-16T14:23:53.418Z,86.92
2023-05-16T14:26:25.201Z,86.59
2023-05-16T14:28:53.319Z,86.84
2023-05-16T14:31:21.294Z,86.42
2023-05-16T14:33:49.192Z,86.25
2023-05-16T14:36:17.150Z,86.55
2023-05-16T14:38:46.554Z,87.16
2023-05-16T14:41:14.540Z,86.88
2023-05-16T14:43:42.530Z,87.32
2023-05-16T14:46:11.022Z,87.18
2023-05-16T14:48:39.141Z,86.88
2023-05-16T14:51:07.889Z,86.53
2023-05-16T14:53:35.999Z,87.01
2023-05-16T14:56:06.125Z,86.60
2023-05-16T14:58:34.120Z,86.35
2023-05-16T15:01:02.073Z,86.80
2023-05-16T15:03:35.434Z,86.95
2023-05-16T15:06:11.810Z,87.12
2023-05-16T15:08:39.816Z,87.11
2023-05-16T15:11:09.218Z,86.77
2023-05-16T15:13:37.240Z,86.63
2023-05-16T15:16:05.837Z,86.48
2023-05-16T15:18:34.162Z,86.43
2023-05-16T15:21:02.390Z,86.33
2023-05-16T15:23:30.349Z,86.53
2023-05-16T15:25:59.323Z,86.34
2023-05-16T15:28:28.648Z,85.99
2023-05-16T15:30:56.756Z,86.19
2023-05-16T15:33:24.666Z,86.08
2023-05-16T15:35:53.033Z,85.90
2023-05-16T15:38:20.909Z,86.31
2023-05-16T15:40:55.053Z,86.46
2023-05-16T15:43:26.377Z,86.47
2023-05-16T15:45:55.703Z,86.53
2023-05-16T15:48:23.707Z,86.80
2023-05-16T15:50:51.571Z,86.75
2023-05-16T15:53:19.675Z,86.94
2023-05-16T15:55:47.981Z,87.05
2023-05-16T15:58:15.992Z,86.64
2023-05-16T16:00:45.596Z,86.42
2023-05-16T16:03:15.285Z,86.40
2023-05-16T16:05:43.322Z,86.99
2023-05-16T16:08:11.213Z,87.29
2023-05-16T16:10:39.060Z,87.60
2023-05-16T16:13:07.179Z,87.00
2023-05-16T16:15:35.997Z,87.37
2023-05-16T16:18:04.463Z,87.53
2023-05-16T16:20:34.087Z,87.22
2023-05-16T16:23:02.138Z,87.57
2023-05-16T16:25:30.369Z,87.50
2023-05-16T16:27:59.951Z,87.98
2023-05-16T16:30:28.275Z,87.91
2023-05-16T16:32:56.440Z,87.83
2023-05-16T16:35:26.269Z,87.29
2023-05-16T16:40:31.310Z,87.40
2023-05-16T16:42:59.715Z,87.43
2023-05-16T16:45:28.316Z,87.66
2023-05-16T16:47:56.648Z,87.31
2023-05-16T16:50:24.703Z,87.44
2023-05-16T16:52:53.707Z,87.21
2023-05-16T16:55:23.060Z,87.43
2023-05-16T16:57:51.028Z,87.46
2023-05-16T17:00:19.757Z,87.83
2023-05-16T17:02:47.953Z,88.01
2023-05-16T17:05:15.981Z,88.00
2023-05-16T17:07:44.170Z,87.74
2023-05-16T17:10:12.284Z,87.84
2023-05-16T17:12:48.908Z,87.55
2023-05-16T17:15:17.459Z,87.89
2023-05-16T17:17:45.904Z,88.01
2023-05-16T17:20:14.367Z,88.11
2023-05-16T17:22:42.277Z,88.20
2023-05-16T17:25:11.470Z,88.04
2023-05-16T17:27:40.611Z,88.34
2023-05-16T17:30:11.505Z,87.97
2023-05-16T17:32:39.931Z,88.38
2023-05-16T17:35:08.250Z,88.34
2023-05-16T17:37:36.472Z,88.41
2023-05-16T17:40:05.856Z,88.58
2023-05-16T17:42:33.821Z,88.50
2023-05-16T17:45:04.407Z,88.48
2023-05-16T17:47:34.620Z,88.16
2023-05-16T17:50:02.690Z,88.34
2023-05-16T17:52:32.612Z,88.33
2023-05-16T17:55:00.602Z,88.49
2023-05-16T17:57:28.703Z,88.81
2023-05-16T17:59:56.720Z,88.95
2023-05-16T18:02:24.702Z,88.84
2023-05-16T18:04:54.008Z,88.72
2023-05-16T18:07:22.232Z,89.11
2023-05-16T18:09:50.308Z,89.32
2023-05-16T18:12:18.351Z,89.38
2023-05-16T18:14:46.300Z,89.55
2023-05-16T18:17:14.473Z,89.27
2023-05-16T18:19:42.568Z,89.37
2023-05-16T18:22:13.341Z,89.36
2023-05-16T18:24:41.413Z,89.32
2023-05-16T18:27:09.533Z,89.07
2023-05-16T18:29:37.504Z,88.62
2023-05-16T18:32:06.026Z,88.00
2023-05-16T18:34:34.120Z,87.61
2023-05-16T18:37:02.150Z,87.33
2023-05-16T18:39:31.792Z,87.23
2023-05-16T18:41:59.836Z,86.80
2023-05-16T18:44:27.762Z,86.38
2023-05-16T18:46:57.578Z,86.21
2023-05-16T18:49:26.030Z,86.13
2023-05-16T18:51:54.126Z,86.61
2023-05-16T18:54:23.335Z,87.19
2023-05-16T18:56:53.728Z,86.80
2023-05-16T18:59:21.618Z,86.76
2023-05-16T19:01:49.493Z,86.62
2023-05-16T19:04:17.579Z,86.59
2023-05-16T19:06:46.114Z,86.93
2023-05-16T19:09:14.195Z,86.38
2023-05-16T19:11:42.377Z,86.54
2023-05-16T19:14:11.672Z,86.86
2023-05-16T19:16:39.647Z,87.15
2023-05-16T19:19:08.351Z,86.59
2023-05-16T19:21:36.555Z,86.91
2023-05-16T19:24:04.929Z,87.40
2023-05-16T19:26:32.905Z,88.24
2023-05-16T19:29:00.816Z,89.03
2023-05-16T19:31:30.155Z,89.55
2023-05-16T19:33:58.024Z,89.92
2023-05-16T19:36:26.142Z,89.91
2023-05-16T19:38:54.051Z,90.48
2023-05-16T19:41:22.034Z,91.10
2023-05-16T19:43:49.960Z,91.41
2023-05-16T19:46:18.013Z,92.52
2023-05-16T19:48:47.603Z,92.99
2023-05-16T19:51:16.639Z,92.80
2023-05-16T19:53:47.398Z,93.23
2023-05-16T19:56:15.242Z,93.36
2023-05-16T19:58:43.821Z,92.89
2023-05-16T20:01:11.782Z,92.79
2023-05-16T20:03:39.946Z,92.35
2023-05-16T20:06:09.377Z,92.24
2023-05-16T20:08:37.395Z,92.14
2023-05-16T20:11:05.292Z,92.31
2023-05-16T20:13:33.746Z,92.20
2023-05-16T20:16:03.031Z,92.07
2023-05-16T20:18:31.036Z,91.85
2023-05-16T20:20:59.095Z,91.77
2023-05-16T20:23:28.500Z,91.75
2023-05-16T20:25:56.522Z,92.19
2023-05-16T20:28:24.470Z,91.82
2023-05-16T20:30:52.387Z,92.07
2023-05-16T20:33:20.315Z,92.31
2023-05-16T20:35:48.428Z,91.69
2023-05-16T20:38:16.743Z,91.91
2023-05-16T20:40:47.518Z,91.37
2023-05-16T20:43:15.535Z,91.35
2023-05-16T20:45:43.540Z,91.75
2023-05-16T20:48:11.471Z,91.62
2023-05-16T20:50:39.399Z,91.64
2023-05-16T20:53:07.389Z,91.82
2023-05-16T20:55:35.369Z,91.77
2023-05-16T20:58:04.691Z,91.87
2023-05-16T21:00:33.568Z,92.25
2023-05-16T21:03:01.668Z,91.87
2023-05-16T21:05:29.769Z,92.35
2023-05-16T21:07:57.781Z,92.15
2023-05-16T21:10:26.687Z,92.05
2023-05-16T21:12:54.628Z,92.29
2023-05-16T21:15:23.983Z,92.58
2023-05-16T21:17:52.269Z,92.13
2023-05-16T21:20:20.614Z,92.51
2023-05-16T21:22:48.702Z,92.46
2023-05-16T21:25:16.866Z,91.93
2023-05-16T21:27:44.850Z,92.11
2023-05-16T21:30:14.214Z,91.75
2023-05-16T21:32:43.603Z,91.97
2023-05-16T21:35:11.531Z,91.58
2023-05-16T21:37:39.647Z,91.43
2023-05-16T21:40:09.400Z,91.25
2023-05-16T21:42:37.571Z,91.47
2023-05-16T21:45:12.399Z,91.66
2023-05-16T21:47:40.549Z,91.42
2023-05-16T21:50:10.679Z,91.45
2023-05-16T21:52:38.774Z,91.48
2023-05-16T21:55:07.855Z,91.50
2023-05-16T21:57:35.940Z,91.67
2023-05-16T22:00:06.859Z,91.42
2023-05-16T22:02:36.436Z,91.26
2023-05-16T22:05:05.074Z,91.20
2023-05-16T22:07:34.505Z,91.26
2023-05-16T22:10:03.000Z,91.49
2023-05-16T22:12:31.054Z,91.54
2023-05-16T22:14:59.003Z,91.51
2023-05-16T22:17:27.033Z,91.44
2023-05-16T22:19:57.268Z,91.81
2023-05-16T22:22:25.271Z,91.67
2023-05-16T22:24:54.960Z,91.71
2023-05-16T22:27:22.910Z,91.65
2023-05-16T22:29:50.850Z,91.57
2023-05-16T22:32:18.762Z,91.51
2023-05-16T22:34:46.634Z,91.42
2023-05-16T22:37:14.591Z,91.51
2023-05-16T22:39:42.520Z,91.48
2023-05-16T22:42:11.869Z,91.31
2023-05-16T22:44:39.703Z,91.25
2023-05-16T22:47:08.048Z,91.08
2023-05-16T22:49:35.973Z,91.26
2023-05-16T22:52:05.757Z,91.24
2023-05-16T22:54:33.744Z,91.11
2023-05-16T22:57:01.798Z,91.30
2023-05-16T22:59:31.001Z,91.43
2023-05-16T23:01:59.034Z,91.01
2023-05-16T23:04:27.091Z,91.14
2023-05-16T23:06:55.070Z,91.56
2023-05-16T23:09:23.218Z,91.43
2023-05-16T23:11:51.251Z,91.41
2023-05-16T23:14:19.135Z,91.15
2023-05-16T23:16:48.398Z,91.24
2023-05-16T23:19:16.299Z,91.32
2023-05-16T23:21:44.512Z,90.95
2023-05-16T23:24:12.427Z,90.94
2023-05-16T23:26:40.435Z,91.21
2023-05-16T23:29:09.004Z,91.28
2023-05-16T23:31:38.975Z,91.61
2023-05-16T23:34:08.475Z,91.42
2023-05-16T23:36:36.923Z,91.61
2023-05-16T23:39:05.001Z,91.47
2023-05-16T23:41:32.988Z,91.70
2023-05-16T23:44:00.918Z,91.59
2023-05-16T23:46:28.910Z,91.28
2023-05-16T23:48:57.910Z,91.24
2023-05-16T23:51:31.162Z,91.55
2023-05-16T23:54:03.475Z,91.43
2023-05-16T23:56:32.818Z,90.91
2023-05-16T23:59:00.704Z,90.91
